sensor_id;sensor_type;location;lat;lon;timestamp;P1;durP1;ratioP1;P2;durP2;ratioP2
50543;SDS011;41176;44.032;20.900;2024-02-16T00:00:23;7.75;;;3.50;;
50543;SDS011;41176;44.032;20.900;2024-02-16T00:02:50;5.82;;;3.85;;
50543;SDS011;41176;44.032;20.900;2024-02-16T00:05:16;8.52;;;3.65;;
50543;SDS011;41176;44.032;20.900;2024-02-16T00:07:42;4.93;;;3.13;;
50543;SDS011;41176;44.032;20.900;2024-02-16T00:10:08;4.93;;;3.00;;
50543;SDS011;41176;44.032;20.900;2024-02-16T00:12:35;4.57;;;2.90;;
50543;SDS011;41176;44.032;20.900;2024-02-16T00:15:01;6.50;;;2.97;;
50543;SDS011;41176;44.032;20.900;2024-02-16T00:17:28;5.93;;;2.65;;
50543;SDS011;41176;44.032;20.900;2024-02-16T00:19:54;4.78;;;2.10;;
50543;SDS011;41176;44.032;20.900;2024-02-16T00:22:20;4.38;;;2.53;;
50543;SDS011;41176;44.032;20.900;2024-02-16T00:24:46;2.65;;;2.45;;
50543;SDS011;41176;44.032;20.900;2024-02-16T00:27:13;3.72;;;2.72;;
50543;SDS011;41176;44.032;20.900;2024-02-16T00:29:39;5.40;;;2.28;;
50543;SDS011;41176;44.032;20.900;2024-02-16T00:32:05;7.55;;;2.88;;
50543;SDS011;41176;44.032;20.900;2024-02-16T00:34:32;2.45;;;1.77;;
50543;SDS011;41176;44.032;20.900;2024-02-16T00:36:59;6.85;;;3.47;;
50543;SDS011;41176;44.032;20.900;2024-02-16T00:39:25;4.88;;;2.53;;
50543;SDS011;41176;44.032;20.900;2024-02-16T00:41:51;3.60;;;3.05;;
50543;SDS011;41176;44.032;20.900;2024-02-16T00:44:17;7.53;;;4.07;;
50543;SDS011;41176;44.032;20.900;2024-02-16T00:46:43;5.55;;;2.38;;
50543;SDS011;41176;44.032;20.900;2024-02-16T00:49:09;8.88;;;3.85;;
50543;SDS011;41176;44.032;20.900;2024-02-16T00:51:35;2.50;;;1.80;;
50543;SDS011;41176;44.032;20.900;2024-02-16T00:54:04;6.35;;;4.15;;
50543;SDS011;41176;44.032;20.900;2024-02-16T00:56:33;5.43;;;3.25;;
50543;SDS011;41176;44.032;20.900;2024-02-16T00:58:58;4.80;;;3.42;;
50543;SDS011;41176;44.032;20.900;2024-02-16T01:01:24;6.25;;;3.72;;
50543;SDS011;41176;44.032;20.900;2024-02-16T01:03:51;10.93;;;5.00;;
50543;SDS011;41176;44.032;20.900;2024-02-16T01:06:18;5.47;;;3.13;;
50543;SDS011;41176;44.032;20.900;2024-02-16T01:08:44;8.25;;;4.05;;
50543;SDS011;41176;44.032;20.900;2024-02-16T01:11:12;7.65;;;3.92;;
50543;SDS011;41176;44.032;20.900;2024-02-16T01:13:41;7.30;;;4.40;;
50543;SDS011;41176;44.032;20.900;2024-02-16T01:16:08;8.70;;;4.75;;
50543;SDS011;41176;44.032;20.900;2024-02-16T01:18:35;7.65;;;3.60;;
50543;SDS011;41176;44.032;20.900;2024-02-16T01:21:02;5.45;;;3.63;;
50543;SDS011;41176;44.032;20.900;2024-02-16T01:23:29;6.30;;;3.45;;
50543;SDS011;41176;44.032;20.900;2024-02-16T01:25:55;4.30;;;3.03;;
50543;SDS011;41176;44.032;20.900;2024-02-16T01:28:20;3.63;;;2.38;;
50543;SDS011;41176;44.032;20.900;2024-02-16T01:30:47;5.18;;;2.88;;
50543;SDS011;41176;44.032;20.900;2024-02-16T01:33:12;6.03;;;3.28;;
50543;SDS011;41176;44.032;20.900;2024-02-16T01:35:38;6.53;;;3.20;;
50543;SDS011;41176;44.032;20.900;2024-02-16T01:38:04;6.47;;;1.90;;
50543;SDS011;41176;44.032;20.900;2024-02-16T01:40:30;3.78;;;2.08;;
50543;SDS011;41176;44.032;20.900;2024-02-16T01:42:56;1.90;;;1.38;;
50543;SDS011;41176;44.032;20.900;2024-02-16T01:45:22;3.15;;;1.92;;
50543;SDS011;41176;44.032;20.900;2024-02-16T01:47:49;5.47;;;1.52;;
50543;SDS011;41176;44.032;20.900;2024-02-16T01:50:17;3.75;;;1.55;;
50543;SDS011;41176;44.032;20.900;2024-02-16T01:52:44;2.97;;;2.20;;
50543;SDS011;41176;44.032;20.900;2024-02-16T01:55:10;2.95;;;2.13;;
50543;SDS011;41176;44.032;20.900;2024-02-16T01:57:42;2.42;;;1.20;;
50543;SDS011;41176;44.032;20.900;2024-02-16T02:00:09;4.13;;;2.38;;
50543;SDS011;41176;44.032;20.900;2024-02-16T02:02:35;2.88;;;1.58;;
50543;SDS011;41176;44.032;20.900;2024-02-16T02:05:02;4.18;;;2.75;;
50543;SDS011;41176;44.032;20.900;2024-02-16T02:07:28;2.33;;;1.55;;
50543;SDS011;41176;44.032;20.900;2024-02-16T02:09:54;1.65;;;1.00;;
50543;SDS011;41176;44.032;20.900;2024-02-16T02:12:21;4.10;;;1.75;;
50543;SDS011;41176;44.032;20.900;2024-02-16T02:14:47;2.70;;;2.10;;
50543;SDS011;41176;44.032;20.900;2024-02-16T02:17:13;6.80;;;2.25;;
50543;SDS011;41176;44.032;20.900;2024-02-16T02:19:39;1.70;;;1.45;;
50543;SDS011;41176;44.032;20.900;2024-02-16T02:22:18;4.15;;;1.30;;
50543;SDS011;41176;44.032;20.900;2024-02-16T02:24:45;3.30;;;1.83;;
50543;SDS011;41176;44.032;20.900;2024-02-16T02:27:12;1.95;;;1.35;;
50543;SDS011;41176;44.032;20.900;2024-02-16T02:29:39;3.55;;;1.90;;
50543;SDS011;41176;44.032;20.900;2024-02-16T02:32:05;2.50;;;1.13;;
50543;SDS011;41176;44.032;20.900;2024-02-16T02:34:32;1.95;;;1.30;;
50543;SDS011;41176;44.032;20.900;2024-02-16T02:36:58;2.13;;;0.82;;
50543;SDS011;41176;44.032;20.900;2024-02-16T02:39:23;0.80;;;0.65;;
50543;SDS011;41176;44.032;20.900;2024-02-16T02:41:50;3.53;;;1.50;;
50543;SDS011;41176;44.032;20.900;2024-02-16T02:44:16;3.05;;;1.17;;
50543;SDS011;41176;44.032;20.900;2024-02-16T02:46:41;2.45;;;1.95;;
50543;SDS011;41176;44.032;20.900;2024-02-16T02:49:07;1.40;;;1.00;;
50543;SDS011;41176;44.032;20.900;2024-02-16T02:51:33;5.05;;;1.83;;
50543;SDS011;41176;44.032;20.900;2024-02-16T02:53:59;2.28;;;1.45;;
50543;SDS011;41176;44.032;20.900;2024-02-16T02:56:24;3.92;;;1.85;;
50543;SDS011;41176;44.032;20.900;2024-02-16T02:58:50;9.25;;;2.20;;
50543;SDS011;41176;44.032;20.900;2024-02-16T03:01:16;1.70;;;1.15;;
50543;SDS011;41176;44.032;20.900;2024-02-16T03:03:44;3.47;;;1.90;;
50543;SDS011;41176;44.032;20.900;2024-02-16T03:06:10;2.90;;;1.40;;
50543;SDS011;41176;44.032;20.900;2024-02-16T03:08:36;3.78;;;2.05;;
50543;SDS011;41176;44.032;20.900;2024-02-16T03:11:01;6.55;;;2.10;;
50543;SDS011;41176;44.032;20.900;2024-02-16T03:13:29;2.80;;;1.77;;
50543;SDS011;41176;44.032;20.900;2024-02-16T03:15:55;3.97;;;1.65;;
50543;SDS011;41176;44.032;20.900;2024-02-16T03:18:21;2.65;;;1.40;;
50543;SDS011;41176;44.032;20.900;2024-02-16T03:20:47;2.90;;;0.88;;
50543;SDS011;41176;44.032;20.900;2024-02-16T03:23:15;3.65;;;1.95;;
50543;SDS011;41176;44.032;20.900;2024-02-16T03:25:41;4.00;;;1.92;;
50543;SDS011;41176;44.032;20.900;2024-02-16T03:28:13;3.42;;;1.20;;
50543;SDS011;41176;44.032;20.900;2024-02-16T03:30:39;5.50;;;2.50;;
50543;SDS011;41176;44.032;20.900;2024-02-16T03:33:05;1.27;;;0.93;;
50543;SDS011;41176;44.032;20.900;2024-02-16T03:35:31;10.82;;;3.40;;
50543;SDS011;41176;44.032;20.900;2024-02-16T03:37:57;1.88;;;1.02;;
50543;SDS011;41176;44.032;20.900;2024-02-16T03:40:26;3.08;;;1.63;;
50543;SDS011;41176;44.032;20.900;2024-02-16T03:42:53;6.55;;;1.40;;
50543;SDS011;41176;44.032;20.900;2024-02-16T03:45:18;1.25;;;0.82;;
50543;SDS011;41176;44.032;20.900;2024-02-16T03:47:44;2.85;;;1.40;;
50543;SDS011;41176;44.032;20.900;2024-02-16T03:50:10;3.97;;;1.95;;
50543;SDS011;41176;44.032;20.900;2024-02-16T03:52:36;2.97;;;1.70;;
50543;SDS011;41176;44.032;20.900;2024-02-16T03:55:02;1.45;;;1.17;;
50543;SDS011;41176;44.032;20.900;2024-02-16T03:57:30;3.38;;;1.60;;
50543;SDS011;41176;44.032;20.900;2024-02-16T03:59:56;5.50;;;1.90;;
50543;SDS011;41176;44.032;20.900;2024-02-16T04:02:22;2.60;;;1.58;;
50543;SDS011;41176;44.032;20.900;2024-02-16T04:04:48;5.53;;;1.63;;
50543;SDS011;41176;44.032;20.900;2024-02-16T04:07:13;1.85;;;0.93;;
50543;SDS011;41176;44.032;20.900;2024-02-16T04:09:41;3.58;;;1.98;;
50543;SDS011;41176;44.032;20.900;2024-02-16T04:12:07;8.35;;;2.20;;
50543;SDS011;41176;44.032;20.900;2024-02-16T04:14:33;4.28;;;1.88;;
50543;SDS011;41176;44.032;20.900;2024-02-16T04:16:58;3.90;;;1.25;;
50543;SDS011;41176;44.032;20.900;2024-02-16T04:19:28;3.40;;;1.67;;
50543;SDS011;41176;44.032;20.900;2024-02-16T04:21:54;4.85;;;1.77;;
50543;SDS011;41176;44.032;20.900;2024-02-16T04:24:20;3.78;;;1.90;;
50543;SDS011;41176;44.032;20.900;2024-02-16T04:26:46;2.60;;;1.48;;
50543;SDS011;41176;44.032;20.900;2024-02-16T04:29:12;3.35;;;1.13;;
50543;SDS011;41176;44.032;20.900;2024-02-16T04:31:41;2.05;;;1.50;;
50543;SDS011;41176;44.032;20.900;2024-02-16T04:34:10;2.65;;;1.35;;
50543;SDS011;41176;44.032;20.900;2024-02-16T04:36:35;2.25;;;1.05;;
50543;SDS011;41176;44.032;20.900;2024-02-16T04:39:01;4.60;;;1.15;;
50543;SDS011;41176;44.032;20.900;2024-02-16T04:41:27;2.15;;;1.15;;
50543;SDS011;41176;44.032;20.900;2024-02-16T04:43:53;1.83;;;1.20;;
50543;SDS011;41176;44.032;20.900;2024-02-16T04:46:19;1.25;;;0.98;;
50543;SDS011;41176;44.032;20.900;2024-02-16T04:48:44;3.33;;;1.23;;
50543;SDS011;41176;44.032;20.900;2024-02-16T04:51:11;2.20;;;1.30;;
50543;SDS011;41176;44.032;20.900;2024-02-16T04:53:37;1.95;;;0.93;;
50543;SDS011;41176;44.032;20.900;2024-02-16T04:56:03;3.17;;;1.63;;
50543;SDS011;41176;44.032;20.900;2024-02-16T04:58:30;4.10;;;1.65;;
50543;SDS011;41176;44.032;20.900;2024-02-16T05:00:55;3.78;;;1.63;;
50543;SDS011;41176;44.032;20.900;2024-02-16T05:03:21;4.72;;;2.28;;
50543;SDS011;41176;44.032;20.900;2024-02-16T05:05:47;1.25;;;0.70;;
50543;SDS011;41176;44.032;20.900;2024-02-16T05:08:13;4.30;;;1.40;;
50543;SDS011;41176;44.032;20.900;2024-02-16T05:10:42;2.20;;;1.63;;
50543;SDS011;41176;44.032;20.900;2024-02-16T05:13:08;3.13;;;2.13;;
50543;SDS011;41176;44.032;20.900;2024-02-16T05:15:34;3.72;;;2.20;;
50543;SDS011;41176;44.032;20.900;2024-02-16T05:18:00;2.47;;;1.75;;
50543;SDS011;41176;44.032;20.900;2024-02-16T05:20:26;6.45;;;2.53;;
50543;SDS011;41176;44.032;20.900;2024-02-16T05:22:51;9.40;;;2.83;;
50543;SDS011;41176;44.032;20.900;2024-02-16T05:25:18;3.63;;;1.77;;
50543;SDS011;41176;44.032;20.900;2024-02-16T05:27:45;11.63;;;2.47;;
50543;SDS011;41176;44.032;20.900;2024-02-16T05:30:11;2.15;;;1.23;;
50543;SDS011;41176;44.032;20.900;2024-02-16T05:32:41;4.03;;;1.63;;
50543;SDS011;41176;44.032;20.900;2024-02-16T05:35:08;3.17;;;2.60;;
50543;SDS011;41176;44.032;20.900;2024-02-16T05:37:40;5.63;;;2.28;;
50543;SDS011;41176;44.032;20.900;2024-02-16T05:40:14;7.93;;;2.90;;
50543;SDS011;41176;44.032;20.900;2024-02-16T05:42:54;6.80;;;3.35;;
50543;SDS011;41176;44.032;20.900;2024-02-16T05:45:23;2.80;;;1.65;;
50543;SDS011;41176;44.032;20.900;2024-02-16T05:47:50;5.00;;;2.75;;
50543;SDS011;41176;44.032;20.900;2024-02-16T05:50:16;4.65;;;1.77;;
50543;SDS011;41176;44.032;20.900;2024-02-16T05:52:43;6.65;;;2.78;;
50543;SDS011;41176;44.032;20.900;2024-02-16T05:55:09;2.30;;;1.58;;
50543;SDS011;41176;44.032;20.900;2024-02-16T05:57:36;3.42;;;2.22;;
50543;SDS011;41176;44.032;20.900;2024-02-16T06:00:05;3.70;;;2.10;;
50543;SDS011;41176;44.032;20.900;2024-02-16T06:02:33;2.45;;;1.67;;
50543;SDS011;41176;44.032;20.900;2024-02-16T06:04:59;3.10;;;1.95;;
50543;SDS011;41176;44.032;20.900;2024-02-16T06:07:26;6.15;;;2.05;;
50543;SDS011;41176;44.032;20.900;2024-02-16T06:09:51;6.18;;;2.90;;
50543;SDS011;41176;44.032;20.900;2024-02-16T06:12:19;3.85;;;2.35;;
50543;SDS011;41176;44.032;20.900;2024-02-16T06:14:45;4.57;;;2.70;;
50543;SDS011;41176;44.032;20.900;2024-02-16T06:17:11;6.97;;;2.55;;
50543;SDS011;41176;44.032;20.900;2024-02-16T06:19:39;2.35;;;1.63;;
50543;SDS011;41176;44.032;20.900;2024-02-16T06:22:06;5.03;;;2.72;;
50543;SDS011;41176;44.032;20.900;2024-02-16T06:24:33;4.85;;;1.85;;
50543;SDS011;41176;44.032;20.900;2024-02-16T06:26:59;3.63;;;1.67;;
50543;SDS011;41176;44.032;20.900;2024-02-16T06:29:25;3.22;;;1.92;;
50543;SDS011;41176;44.032;20.900;2024-02-16T06:31:51;2.50;;;2.00;;
50543;SDS011;41176;44.032;20.900;2024-02-16T06:34:17;3.55;;;2.40;;
50543;SDS011;41176;44.032;20.900;2024-02-16T06:36:43;3.72;;;1.88;;
50543;SDS011;41176;44.032;20.900;2024-02-16T06:39:11;4.65;;;2.50;;
50543;SDS011;41176;44.032;20.900;2024-02-16T06:41:41;4.70;;;3.20;;
50543;SDS011;41176;44.032;20.900;2024-02-16T06:44:11;7.65;;;3.30;;
50543;SDS011;41176;44.032;20.900;2024-02-16T06:46:38;3.88;;;2.03;;
50543;SDS011;41176;44.032;20.900;2024-02-16T06:49:03;3.67;;;1.98;;
50543;SDS011;41176;44.032;20.900;2024-02-16T06:51:29;4.47;;;3.03;;
50543;SDS011;41176;44.032;20.900;2024-02-16T06:53:55;6.25;;;2.85;;
50543;SDS011;41176;44.032;20.900;2024-02-16T06:56:21;2.67;;;1.65;;
50543;SDS011;41176;44.032;20.900;2024-02-16T06:58:47;2.60;;;1.40;;
50543;SDS011;41176;44.032;20.900;2024-02-16T07:01:13;3.03;;;1.63;;
50543;SDS011;41176;44.032;20.900;2024-02-16T07:03:40;5.32;;;2.95;;
50543;SDS011;41176;44.032;20.900;2024-02-16T07:06:06;3.83;;;2.10;;
50543;SDS011;41176;44.032;20.900;2024-02-16T07:08:38;3.83;;;2.08;;
50543;SDS011;41176;44.032;20.900;2024-02-16T07:11:06;4.13;;;2.47;;
50543;SDS011;41176;44.032;20.900;2024-02-16T07:13:36;3.92;;;1.90;;
50543;SDS011;41176;44.032;20.900;2024-02-16T07:16:03;2.72;;;1.80;;
50543;SDS011;41176;44.032;20.900;2024-02-16T07:18:29;2.05;;;1.75;;
50543;SDS011;41176;44.032;20.900;2024-02-16T07:20:55;2.58;;;1.30;;
50543;SDS011;41176;44.032;20.900;2024-02-16T07:23:21;2.92;;;1.73;;
50543;SDS011;41176;44.032;20.900;2024-02-16T07:25:47;2.75;;;1.88;;
50543;SDS011;41176;44.032;20.900;2024-02-16T07:28:16;2.13;;;1.23;;
50543;SDS011;41176;44.032;20.900;2024-02-16T07:30:42;2.00;;;1.35;;
50543;SDS011;41176;44.032;20.900;2024-02-16T07:33:07;1.98;;;0.68;;
50543;SDS011;41176;44.032;20.900;2024-02-16T07:35:34;2.15;;;1.08;;
50543;SDS011;41176;44.032;20.900;2024-02-16T07:38:00;2.88;;;1.50;;
50543;SDS011;41176;44.032;20.900;2024-02-16T07:40:27;3.22;;;2.05;;
50543;SDS011;41176;44.032;20.900;2024-02-16T07:42:53;2.15;;;1.75;;
50543;SDS011;41176;44.032;20.900;2024-02-16T07:45:19;2.45;;;1.33;;
50543;SDS011;41176;44.032;20.900;2024-02-16T07:47:45;0.73;;;0.55;;
50543;SDS011;41176;44.032;20.900;2024-02-16T07:50:11;1.23;;;0.80;;
50543;SDS011;41176;44.032;20.900;2024-02-16T07:52:40;1.50;;;1.23;;
50543;SDS011;41176;44.032;20.900;2024-02-16T07:55:07;1.50;;;1.33;;
50543;SDS011;41176;44.032;20.900;2024-02-16T07:57:34;1.67;;;0.95;;
50543;SDS011;41176;44.032;20.900;2024-02-16T08:00:00;1.20;;;0.90;;
50543;SDS011;41176;44.032;20.900;2024-02-16T08:02:26;2.97;;;0.90;;
50543;SDS011;41176;44.032;20.900;2024-02-16T08:04:51;0.43;;;0.38;;
50543;SDS011;41176;44.032;20.900;2024-02-16T08:07:17;5.90;;;2.13;;
50543;SDS011;41176;44.032;20.900;2024-02-16T08:09:44;1.90;;;1.23;;
50543;SDS011;41176;44.032;20.900;2024-02-16T08:12:10;1.33;;;1.23;;
50543;SDS011;41176;44.032;20.900;2024-02-16T08:14:37;0.73;;;0.57;;
50543;SDS011;41176;44.032;20.900;2024-02-16T08:17:06;1.55;;;0.95;;
50543;SDS011;41176;44.032;20.900;2024-02-16T08:19:36;1.65;;;1.10;;
50543;SDS011;41176;44.032;20.900;2024-02-16T08:22:02;1.40;;;0.73;;
50543;SDS011;41176;44.032;20.900;2024-02-16T08:24:36;0.95;;;0.40;;
50543;SDS011;41176;44.032;20.900;2024-02-16T08:27:03;0.52;;;0.47;;
50543;SDS011;41176;44.032;20.900;2024-02-16T08:29:31;0.95;;;0.50;;
50543;SDS011;41176;44.032;20.900;2024-02-16T08:31:57;1.10;;;0.85;;
50543;SDS011;41176;44.032;20.900;2024-02-16T08:34:23;1.02;;;0.65;;
50543;SDS011;41176;44.032;20.900;2024-02-16T08:36:51;0.98;;;0.75;;
50543;SDS011;41176;44.032;20.900;2024-02-16T08:39:17;1.10;;;0.80;;
50543;SDS011;41176;44.032;20.900;2024-02-16T08:41:45;1.92;;;0.88;;
50543;SDS011;41176;44.032;20.900;2024-02-16T08:44:13;0.73;;;0.73;;
50543;SDS011;41176;44.032;20.900;2024-02-16T08:46:39;0.65;;;0.43;;
50543;SDS011;41176;44.032;20.900;2024-02-16T08:49:05;0.77;;;0.77;;
50543;SDS011;41176;44.032;20.900;2024-02-16T08:51:31;2.53;;;1.27;;
50543;SDS011;41176;44.032;20.900;2024-02-16T08:53:57;2.53;;;0.77;;
50543;SDS011;41176;44.032;20.900;2024-02-16T08:56:23;0.50;;;0.43;;
50543;SDS011;41176;44.032;20.900;2024-02-16T08:58:49;3.30;;;0.75;;
50543;SDS011;41176;44.032;20.900;2024-02-16T09:01:15;1.85;;;0.75;;
50543;SDS011;41176;44.032;20.900;2024-02-16T09:03:41;0.90;;;0.85;;
50543;SDS011;41176;44.032;20.900;2024-02-16T09:06:07;1.50;;;1.40;;
50543;SDS011;41176;44.032;20.900;2024-02-16T09:08:33;3.85;;;1.17;;
50543;SDS011;41176;44.032;20.900;2024-02-16T09:11:03;0.80;;;0.50;;
50543;SDS011;41176;44.032;20.900;2024-02-16T09:13:32;0.52;;;0.20;;
50543;SDS011;41176;44.032;20.900;2024-02-16T09:15:58;0.47;;;0.40;;
50543;SDS011;41176;44.032;20.900;2024-02-16T09:18:24;2.00;;;1.15;;
50543;SDS011;41176;44.032;20.900;2024-02-16T09:20:50;2.50;;;1.08;;
50543;SDS011;41176;44.032;20.900;2024-02-16T09:23:15;3.00;;;2.45;;
50543;SDS011;41176;44.032;20.900;2024-02-16T09:25:41;0.68;;;0.52;;
50543;SDS011;41176;44.032;20.900;2024-02-16T09:28:07;1.20;;;0.95;;
50543;SDS011;41176;44.032;20.900;2024-02-16T09:30:33;1.33;;;1.05;;
50543;SDS011;41176;44.032;20.900;2024-02-16T09:32:59;0.68;;;0.52;;
50543;SDS011;41176;44.032;20.900;2024-02-16T09:35:25;0.50;;;0.50;;
50543;SDS011;41176;44.032;20.900;2024-02-16T09:37:51;0.20;;;0.20;;
50543;SDS011;41176;44.032;20.900;2024-02-16T09:40:16;0.45;;;0.32;;
50543;SDS011;41176;44.032;20.900;2024-02-16T09:42:47;0.60;;;0.50;;
50543;SDS011;41176;44.032;20.900;2024-02-16T09:45:14;1.67;;;0.90;;
50543;SDS011;41176;44.032;20.900;2024-02-16T09:47:43;1.00;;;0.65;;
50543;SDS011;41176;44.032;20.900;2024-02-16T09:50:12;0.32;;;0.22;;
50543;SDS011;41176;44.032;20.900;2024-02-16T09:52:38;0.40;;;0.35;;
50543;SDS011;41176;44.032;20.900;2024-02-16T09:55:05;2.20;;;1.05;;
50543;SDS011;41176;44.032;20.900;2024-02-16T09:57:36;0.35;;;0.25;;
50543;SDS011;41176;44.032;20.900;2024-02-16T10:00:02;0.55;;;0.43;;
50543;SDS011;41176;44.032;20.900;2024-02-16T10:02:44;4.05;;;0.45;;
50543;SDS011;41176;44.032;20.900;2024-02-16T10:05:14;0.40;;;0.30;;
50543;SDS011;41176;44.032;20.900;2024-02-16T10:07:42;1.30;;;1.20;;
50543;SDS011;41176;44.032;20.900;2024-02-16T10:13:03;1.40;;;0.73;;
50543;SDS011;41176;44.032;20.900;2024-02-16T10:15:33;3.22;;;1.10;;
50543;SDS011;41176;44.032;20.900;2024-02-16T10:20:29;1.17;;;0.85;;
50543;SDS011;41176;44.032;20.900;2024-02-16T10:25:29;0.77;;;0.68;;
50543;SDS011;41176;44.032;20.900;2024-02-16T10:27:55;0.73;;;0.60;;
50543;SDS011;41176;44.032;20.900;2024-02-16T10:30:23;3.08;;;1.23;;
50543;SDS011;41176;44.032;20.900;2024-02-16T10:32:58;0.82;;;0.50;;
50543;SDS011;41176;44.032;20.900;2024-02-16T10:35:25;0.63;;;0.45;;
50543;SDS011;41176;44.032;20.900;2024-02-16T10:37:52;1.05;;;0.70;;
50543;SDS011;41176;44.032;20.900;2024-02-16T10:40:19;1.58;;;0.95;;
50543;SDS011;41176;44.032;20.900;2024-02-16T10:42:47;0.30;;;0.30;;
50543;SDS011;41176;44.032;20.900;2024-02-16T10:45:17;1.60;;;1.13;;
50543;SDS011;41176;44.032;20.900;2024-02-16T10:47:46;1.35;;;0.88;;
50543;SDS011;41176;44.032;20.900;2024-02-16T10:50:12;0.38;;;0.25;;
50543;SDS011;41176;44.032;20.900;2024-02-16T10:52:39;0.32;;;0.20;;
50543;SDS011;41176;44.032;20.900;2024-02-16T10:55:08;0.60;;;0.45;;
50543;SDS011;41176;44.032;20.900;2024-02-16T10:57:38;0.40;;;0.35;;
50543;SDS011;41176;44.032;20.900;2024-02-16T11:00:08;3.63;;;1.02;;
50543;SDS011;41176;44.032;20.900;2024-02-16T11:02:56;1.70;;;1.13;;
50543;SDS011;41176;44.032;20.900;2024-02-16T11:08:03;0.50;;;0.30;;
50543;SDS011;41176;44.032;20.900;2024-02-16T11:10:30;0.60;;;0.47;;
50543;SDS011;41176;44.032;20.900;2024-02-16T11:13:03;0.40;;;0.20;;
50543;SDS011;41176;44.032;20.900;2024-02-16T11:15:33;0.50;;;0.38;;
50543;SDS011;41176;44.032;20.900;2024-02-16T11:18:00;0.93;;;0.75;;
50543;SDS011;41176;44.032;20.900;2024-02-16T11:20:36;0.98;;;0.80;;
50543;SDS011;41176;44.032;20.900;2024-02-16T11:23:06;0.85;;;0.63;;
50543;SDS011;41176;44.032;20.900;2024-02-16T11:25:34;0.57;;;0.43;;
50543;SDS011;41176;44.032;20.900;2024-02-16T11:28:01;0.63;;;0.43;;
50543;SDS011;41176;44.032;20.900;2024-02-16T11:30:28;1.42;;;1.25;;
50543;SDS011;41176;44.032;20.900;2024-02-16T11:32:59;1.02;;;0.55;;
50543;SDS011;41176;44.032;20.900;2024-02-16T11:35:25;1.65;;;1.10;;
50543;SDS011;41176;44.032;20.900;2024-02-16T11:37:50;0.77;;;0.43;;
50543;SDS011;41176;44.032;20.900;2024-02-16T11:40:16;1.48;;;0.75;;
50543;SDS011;41176;44.032;20.900;2024-02-16T11:42:42;0.55;;;0.40;;
50543;SDS011;41176;44.032;20.900;2024-02-16T11:45:11;0.88;;;0.52;;
50543;SDS011;41176;44.032;20.900;2024-02-16T11:47:37;0.40;;;0.30;;
50543;SDS011;41176;44.032;20.900;2024-02-16T11:50:04;1.13;;;0.70;;
50543;SDS011;41176;44.032;20.900;2024-02-16T11:52:31;1.65;;;0.80;;
50543;SDS011;41176;44.032;20.900;2024-02-16T11:54:57;1.98;;;1.48;;
50543;SDS011;41176;44.032;20.900;2024-02-16T11:57:28;1.20;;;0.50;;
50543;SDS011;41176;44.032;20.900;2024-02-16T11:59:54;0.80;;;0.60;;
50543;SDS011;41176;44.032;20.900;2024-02-16T12:02:23;0.52;;;0.30;;
50543;SDS011;41176;44.032;20.900;2024-02-16T12:04:57;0.50;;;0.10;;
50543;SDS011;41176;44.032;20.900;2024-02-16T12:10:02;2.90;;;0.85;;
50543;SDS011;41176;44.032;20.900;2024-02-16T12:12:31;1.25;;;0.85;;
50543;SDS011;41176;44.032;20.900;2024-02-16T12:14:57;0.88;;;0.73;;
50543;SDS011;41176;44.032;20.900;2024-02-16T12:17:24;0.65;;;0.40;;
50543;SDS011;41176;44.032;20.900;2024-02-16T12:19:50;1.05;;;0.50;;
50543;SDS011;41176;44.032;20.900;2024-02-16T12:22:17;1.08;;;0.65;;
50543;SDS011;41176;44.032;20.900;2024-02-16T12:24:47;0.93;;;0.65;;
50543;SDS011;41176;44.032;20.900;2024-02-16T12:27:13;0.68;;;0.55;;
50543;SDS011;41176;44.032;20.900;2024-02-16T12:29:42;0.40;;;0.30;;
50543;SDS011;41176;44.032;20.900;2024-02-16T12:32:08;1.42;;;0.80;;
50543;SDS011;41176;44.032;20.900;2024-02-16T12:34:37;0.98;;;0.70;;
50543;SDS011;41176;44.032;20.900;2024-02-16T12:37:06;0.88;;;0.47;;
50543;SDS011;41176;44.032;20.900;2024-02-16T12:39:33;1.48;;;0.50;;
50543;SDS011;41176;44.032;20.900;2024-02-16T12:41:59;2.72;;;0.98;;
50543;SDS011;41176;44.032;20.900;2024-02-16T12:44:25;0.52;;;0.40;;
50543;SDS011;41176;44.032;20.900;2024-02-16T12:46:51;0.93;;;0.20;;
50543;SDS011;41176;44.032;20.900;2024-02-16T12:49:16;0.85;;;0.65;;
50543;SDS011;41176;44.032;20.900;2024-02-16T12:51:46;0.73;;;0.52;;
50543;SDS011;41176;44.032;20.900;2024-02-16T12:54:15;0.77;;;0.57;;
50543;SDS011;41176;44.032;20.900;2024-02-16T12:56:44;1.02;;;0.93;;
50543;SDS011;41176;44.032;20.900;2024-02-16T12:59:10;0.70;;;0.60;;
50543;SDS011;41176;44.032;20.900;2024-02-16T13:01:36;0.10;;;0.10;;
50543;SDS011;41176;44.032;20.900;2024-02-16T13:04:02;0.63;;;0.43;;
50543;SDS011;41176;44.032;20.900;2024-02-16T13:06:29;1.33;;;0.95;;
50543;SDS011;41176;44.032;20.900;2024-02-16T13:08:55;0.13;;;0.13;;
50543;SDS011;41176;44.032;20.900;2024-02-16T13:11:21;0.35;;;0.20;;
50543;SDS011;41176;44.032;20.900;2024-02-16T13:13:46;2.35;;;0.70;;
50543;SDS011;41176;44.032;20.900;2024-02-16T13:16:12;0.47;;;0.40;;
50543;SDS011;41176;44.032;20.900;2024-02-16T13:18:38;0.73;;;0.47;;
50543;SDS011;41176;44.032;20.900;2024-02-16T13:21:04;1.30;;;0.90;;
50543;SDS011;41176;44.032;20.900;2024-02-16T13:23:30;0.63;;;0.50;;
50543;SDS011;41176;44.032;20.900;2024-02-16T13:25:56;0.38;;;0.30;;
50543;SDS011;41176;44.032;20.900;2024-02-16T13:28:22;0.90;;;0.30;;
50543;SDS011;41176;44.032;20.900;2024-02-16T13:30:48;0.50;;;0.25;;
50543;SDS011;41176;44.032;20.900;2024-02-16T13:33:14;0.28;;;0.10;;
50543;SDS011;41176;44.032;20.900;2024-02-16T13:35:40;1.00;;;0.70;;
50543;SDS011;41176;44.032;20.900;2024-02-16T13:38:06;0.40;;;0.32;;
50543;SDS011;41176;44.032;20.900;2024-02-16T13:40:32;0.45;;;0.35;;
50543;SDS011;41176;44.032;20.900;2024-02-16T13:42:59;0.50;;;0.38;;
50543;SDS011;41176;44.032;20.900;2024-02-16T13:45:47;0.38;;;0.35;;
50543;SDS011;41176;44.032;20.900;2024-02-16T13:48:15;0.52;;;0.40;;
50543;SDS011;41176;44.032;20.900;2024-02-16T13:50:43;0.52;;;0.45;;
50543;SDS011;41176;44.032;20.900;2024-02-16T13:53:13;0.20;;;0.15;;
50543;SDS011;41176;44.032;20.900;2024-02-16T13:55:40;1.08;;;0.55;;
50543;SDS011;41176;44.032;20.900;2024-02-16T13:58:07;0.70;;;0.47;;
50543;SDS011;41176;44.032;20.900;2024-02-16T14:00:33;0.40;;;0.30;;
50543;SDS011;41176;44.032;20.900;2024-02-16T14:02:59;0.55;;;0.43;;
50543;SDS011;41176;44.032;20.900;2024-02-16T14:05:25;0.52;;;0.40;;
50543;SDS011;41176;44.032;20.900;2024-02-16T14:07:51;0.55;;;0.20;;
50543;SDS011;41176;44.032;20.900;2024-02-16T14:10:17;1.63;;;0.20;;
50543;SDS011;41176;44.032;20.900;2024-02-16T14:12:44;1.27;;;0.50;;
50543;SDS011;41176;44.032;20.900;2024-02-16T14:15:11;0.57;;;0.43;;
50543;SDS011;41176;44.032;20.900;2024-02-16T14:17:40;0.35;;;0.20;;
50543;SDS011;41176;44.032;20.900;2024-02-16T14:20:07;0.70;;;0.40;;
50543;SDS011;41176;44.032;20.900;2024-02-16T14:22:33;0.60;;;0.50;;
50543;SDS011;41176;44.032;20.900;2024-02-16T14:24:59;0.30;;;0.28;;
50543;SDS011;41176;44.032;20.900;2024-02-16T14:27:25;1.08;;;0.60;;
50543;SDS011;41176;44.032;20.900;2024-02-16T14:29:50;0.55;;;0.38;;
50543;SDS011;41176;44.032;20.900;2024-02-16T14:32:16;0.13;;;0.10;;
50543;SDS011;41176;44.032;20.900;2024-02-16T14:34:42;1.35;;;0.88;;
50543;SDS011;41176;44.032;20.900;2024-02-16T14:37:09;0.38;;;0.35;;
50543;SDS011;41176;44.032;20.900;2024-02-16T14:39:35;0.52;;;0.32;;
50543;SDS011;41176;44.032;20.900;2024-02-16T14:42:01;0.88;;;0.50;;
50543;SDS011;41176;44.032;20.900;2024-02-16T14:44:27;0.63;;;0.55;;